Airfield :







YOU CAN JOIN US ON...

 
LOGIN :

Register | Disclaimer

   EN    FR    IT 

 









Legend :    VFR   Marginal VFR   IFR   Intensive IFR   Very Intensive IFR
Visi :
Ceiling :
>= 8 km
>= 3000ft
5 to 8 km
1000 to 3000 ft
1500m to 5 km
500 to 1000 ft
800 to 1500m
200 to 500 ft
< 800m
< 200 ft
Symbols :   Thunderstorms  Fog  Heavy snow  Heavy precipitations  Wind > 20 kt






- Airport Elevation : 1009 ft
- IATA code : ORH


KORH - Worcester Regional

CURRENT METAR :
  • 090354Z AUTO 27009KT 10SM CLR 09/03 A2989 RMK AO2 SLP127 T00890028

EXPIRED METARs :
  • 090254Z AUTO 27009KT 10SM FEW048 BKN120 09/03 A2989 RMK AO2 SLP125 T00890033 51010
  • 090154Z AUTO 24010KT 10SM BKN055 OVC070 09/03 A2988 RMK AO2 SLP122 LAST AUGMENTED OBS T00940033

TAF KORH
Valid from the 09 at 04:00 until the 10 at 00:00 UTC


090332Z 0904/0924 27009KT P6SM FEW050 BKN120
FM091200 28012KT P6SM FEW100
FM092000 26010KT P6SM BKN100
FM092200 24010KT P6SM OVC070
KZBW FIR / North America



MET'MAP, your aeronautical weather chart ! - Copyright ORBIFLY December 2007 - Disclaimer

ORBIFLY MET'MAP TEAM :

Programming & Development : Alexandra Zaïnal
Concept & original design : Baudouin d'Aumeries
Assistance for programming : Marc-Olivier Méhu
Technical & hardware support : Manuel Goepfert

Contact : metmap@orbifly.com




SOURCES & CREDITS :

   NOAA